Time;durP1;ratioP1;P1;durP2;ratioP2;P2;SDS_P1;SDS_P2;PMS_P1;PMS_P2;Temp;Humidity;BMP_temperature;BMP_pressure;BME280_temperature;BME280_humidity;BME280_pressure;Samples;Min_cycle;Max_cycle;Signal;HPM_P1;HPM_P2
2024/03/07 00:00:15;;;;;;;0.30;0.20;;;10.60;99.90;;;;;;5083803;28;20300;-76
2024/03/07 00:02:48;;;;;;;0.30;0.20;;;10.60;99.90;;;;;;5083283;28;20208;-77
2024/03/07 00:05:14;;;;;;;0.30;0.30;;;10.60;99.90;;;;;;5083811;28;20646;-77
2024/03/07 00:07:40;;;;;;;0.30;0.20;;;10.60;99.90;;;;;;5083416;28;20200;-76
2024/03/07 00:10:07;;;;;;;2.00;1.90;;;10.50;99.90;;;;;;5083522;28;20271;-77
2024/03/07 00:12:36;;;;;;;3.10;3.00;;;10.50;99.90;;;;;;5084585;28;20216;-77
2024/03/07 00:15:10;;;;;;;0.30;0.20;;;10.60;99.90;;;;;;5085156;28;20329;-76
2024/03/07 00:17:37;;;;;;;0.30;0.20;;;10.50;99.90;;;;;;5084583;28;20272;-77
2024/03/07 00:20:08;;;;;;;0.30;0.20;;;10.60;99.90;;;;;;5087419;28;20200;-76
2024/03/07 00:22:35;;;;;;;0.30;0.30;;;10.60;99.90;;;;;;5088269;28;20215;-76
2024/03/07 00:25:01;;;;;;;0.30;0.20;;;10.60;99.90;;;;;;5088704;28;20324;-76
2024/03/07 00:27:27;;;;;;;0.30;0.20;;;10.60;99.90;;;;;;5087894;28;20214;-77
2024/03/07 00:29:53;;;;;;;0.30;0.20;;;10.50;99.90;;;;;;5087551;28;20217;-77
2024/03/07 00:32:23;;;;;;;0.30;0.20;;;10.50;99.90;;;;;;5086352;28;20267;-76
2024/03/07 00:34:49;;;;;;;0.30;0.20;;;10.50;99.90;;;;;;5086992;28;20947;-77
2024/03/07 00:37:16;;;;;;;0.30;0.20;;;10.40;99.90;;;;;;5087923;28;20177;-76
2024/03/07 00:39:42;;;;;;;0.30;0.20;;;10.40;99.90;;;;;;5086436;28;20216;-77
2024/03/07 00:42:08;;;;;;;0.67;0.67;;;10.40;99.90;;;;;;5086495;28;20187;-77
2024/03/07 00:44:34;;;;;;;0.30;0.20;;;10.40;99.90;;;;;;5088044;28;20208;-76
2024/03/07 00:47:02;;;;;;;0.30;0.20;;;10.40;99.90;;;;;;5086327;28;20204;-77
2024/03/07 00:49:28;;;;;;;0.30;0.20;;;10.40;99.90;;;;;;5086569;28;20440;-77
2024/03/07 00:51:54;;;;;;;0.30;0.30;;;10.40;99.90;;;;;;5087684;28;20326;-76
2024/03/07 00:54:20;;;;;;;1.17;1.17;;;10.30;99.90;;;;;;5088013;28;20196;-76
2024/03/07 00:56:48;;;;;;;0.30;0.20;;;10.30;99.90;;;;;;5087620;28;20402;-76
2024/03/07 00:59:17;;;;;;;0.30;0.28;;;10.30;99.90;;;;;;5087973;28;20487;-76
2024/03/07 01:01:43;;;;;;;0.30;0.20;;;10.20;99.90;;;;;;5087736;28;20571;-77
2024/03/07 01:04:09;;;;;;;0.30;0.20;;;10.20;99.90;;;;;;5086218;28;20212;-76
2024/03/07 01:06:40;;;;;;;0.30;0.20;;;10.10;99.90;;;;;;5086151;28;20226;-76
2024/03/07 01:09:13;;;;;;;0.30;0.20;;;10.10;99.90;;;;;;5087594;28;20226;-76
2024/03/07 01:11:43;;;;;;;0.30;0.20;;;10.10;99.90;;;;;;5087389;28;20172;-76
2024/03/07 01:14:08;;;;;;;0.30;0.20;;;10.10;99.90;;;;;;5085777;28;20247;-76
2024/03/07 01:16:34;;;;;;;0.30;0.20;;;10.10;99.90;;;;;;5087422;28;20172;-77
2024/03/07 01:19:00;;;;;;;0.37;0.37;;;10.10;99.90;;;;;;5087328;28;20211;-76
2024/03/07 01:21:26;;;;;;;1.50;1.40;;;10.10;99.90;;;;;;5087378;28;20697;-76
2024/03/07 01:23:52;;;;;;;0.30;0.20;;;10.10;99.90;;;;;;5087436;28;20279;-76
2024/03/07 01:26:17;;;;;;;1.17;1.17;;;10.10;99.90;;;;;;5086183;28;20188;-77
2024/03/07 01:28:43;;;;;;;0.30;0.20;;;10.10;99.90;;;;;;5085543;28;20207;-76
2024/03/07 01:31:10;;;;;;;0.30;0.20;;;10.10;99.90;;;;;;5086194;28;20684;-77
2024/03/07 01:33:36;;;;;;;9.85;9.50;;;10.20;99.90;;;;;;5086515;28;20192;-77
2024/03/07 01:36:02;;;;;;;0.30;0.20;;;10.20;99.90;;;;;;5085811;28;20196;-77
2024/03/07 01:38:27;;;;;;;2.50;2.40;;;10.20;99.90;;;;;;5086832;28;20489;-76
2024/03/07 01:40:54;;;;;;;0.40;0.30;;;10.20;99.90;;;;;;5085396;28;20502;-76
2024/03/07 01:43:21;;;;;;;0.30;0.20;;;10.20;99.90;;;;;;5086316;28;20196;-76
2024/03/07 01:45:47;;;;;;;0.85;0.85;;;10.20;99.90;;;;;;5085847;28;20195;-77
2024/03/07 01:48:22;;;;;;;0.30;0.20;;;10.10;99.90;;;;;;5084834;28;20208;-77
2024/03/07 01:50:48;;;;;;;0.30;0.20;;;10.10;99.90;;;;;;5085560;28;20648;-76
2024/03/07 01:53:14;;;;;;;0.30;0.30;;;10.10;99.90;;;;;;5084859;28;20207;-77
2024/03/07 01:55:40;;;;;;;0.30;0.20;;;10.10;99.90;;;;;;5086924;28;20225;-76
2024/03/07 01:58:09;;;;;;;0.30;0.20;;;10.10;99.90;;;;;;5086272;28;20211;-77
2024/03/07 02:00:35;;;;;;;2.17;2.08;;;10.10;99.90;;;;;;5086765;28;20196;-77
2024/03/07 02:03:01;;;;;;;0.30;0.20;;;10.10;99.90;;;;;;5084800;28;20202;-77
2024/03/07 02:05:26;;;;;;;0.30;0.20;;;10.10;99.90;;;;;;5086457;28;20218;-76
2024/03/07 02:07:52;;;;;;;3.43;3.23;;;10.10;99.90;;;;;;5086320;28;20200;-76
2024/03/07 02:10:18;;;;;;;0.30;0.20;;;10.10;99.90;;;;;;5084919;28;20281;-76
2024/03/07 02:12:45;;;;;;;0.30;0.20;;;10.10;99.90;;;;;;5086117;28;20200;-77
2024/03/07 02:15:10;;;;;;;0.30;0.20;;;10.10;99.90;;;;;;5084859;28;20729;-76
2024/03/07 02:17:38;;;;;;;0.30;0.20;;;10.00;99.90;;;;;;5086234;28;20241;-77
2024/03/07 02:20:07;;;;;;;0.30;0.20;;;10.00;99.90;;;;;;5086078;28;20481;-77
2024/03/07 02:22:32;;;;;;;0.30;0.20;;;10.00;99.90;;;;;;5086073;28;20211;-76
2024/03/07 02:24:58;;;;;;;0.30;0.20;;;9.90;99.90;;;;;;5085987;28;20293;-76
2024/03/07 02:27:24;;;;;;;0.30;0.20;;;10.00;99.90;;;;;;5085496;28;20213;-76
2024/03/07 02:29:51;;;;;;;0.30;0.20;;;10.00;99.90;;;;;;5084779;28;20212;-76
2024/03/07 02:32:17;;;;;;;0.65;0.65;;;10.00;99.90;;;;;;5085681;28;20528;-76
2024/03/07 02:34:43;;;;;;;0.30;0.20;;;10.00;99.90;;;;;;5084102;28;20394;-77
2024/03/07 02:37:09;;;;;;;0.30;0.20;;;10.00;99.90;;;;;;5084056;28;20211;-77
2024/03/07 02:39:36;;;;;;;0.30;0.20;;;9.90;99.90;;;;;;5086340;28;20527;-76
2024/03/07 02:42:02;;;;;;;0.30;0.20;;;9.90;99.90;;;;;;5085415;28;20177;-77
2024/03/07 02:44:28;;;;;;;19.67;17.98;;;9.90;99.90;;;;;;5086211;28;20612;-77
2024/03/07 02:46:54;;;;;;;0.30;0.20;;;10.00;99.90;;;;;;5084107;28;20314;-77
2024/03/07 02:49:21;;;;;;;0.30;0.20;;;10.00;99.90;;;;;;5085873;28;20196;-76
2024/03/07 02:51:47;;;;;;;0.30;0.20;;;10.00;99.90;;;;;;5083944;28;20177;-77
2024/03/07 02:54:13;;;;;;;0.30;0.20;;;10.00;99.90;;;;;;5085868;28;20204;-77
2024/03/07 02:56:38;;;;;;;0.30;0.20;;;10.00;99.90;;;;;;5085604;28;20183;-77
2024/03/07 02:59:04;;;;;;;0.30;0.20;;;10.00;99.90;;;;;;5085322;28;20287;-76
2024/03/07 03:01:30;;;;;;;0.30;0.20;;;10.00;99.90;;;;;;5085367;28;20193;-76
2024/03/07 03:03:56;;;;;;;0.30;0.20;;;10.00;99.90;;;;;;5085414;28;20200;-77
2024/03/07 03:06:21;;;;;;;0.40;0.40;;;10.00;99.90;;;;;;5085687;28;20401;-76
2024/03/07 03:08:47;;;;;;;0.63;0.63;;;10.00;99.90;;;;;;5085088;28;20637;-76
2024/03/07 03:11:13;;;;;;;0.30;0.20;;;10.00;99.90;;;;;;5085366;28;20658;-77
2024/03/07 03:13:40;;;;;;;0.30;0.20;;;10.00;99.90;;;;;;5083384;28;20244;-77
2024/03/07 03:16:07;;;;;;;0.30;0.20;;;9.90;99.90;;;;;;5085517;28;20243;-77
2024/03/07 03:18:36;;;;;;;0.30;0.20;;;9.90;99.90;;;;;;5085621;28;20219;-77
2024/03/07 03:21:03;;;;;;;0.30;0.20;;;9.90;99.90;;;;;;5084059;28;20216;-77
2024/03/07 03:23:29;;;;;;;0.30;0.20;;;9.80;99.90;;;;;;5085453;28;20242;-76
2024/03/07 03:25:55;;;;;;;0.30;0.20;;;9.90;99.90;;;;;;5085702;28;20360;-76
2024/03/07 03:28:24;;;;;;;0.30;0.20;;;9.80;99.90;;;;;;5084967;28;20524;-77
2024/03/07 03:30:51;;;;;;;0.30;0.20;;;9.80;99.90;;;;;;5085363;28;20405;-77
2024/03/07 03:33:17;;;;;;;0.30;0.20;;;9.80;99.90;;;;;;5084982;28;20207;-77
2024/03/07 03:35:44;;;;;;;1.30;1.27;;;9.70;99.90;;;;;;5084426;28;20165;-77
2024/03/07 03:38:10;;;;;;;0.30;0.20;;;9.70;99.90;;;;;;5083134;28;20445;-77
2024/03/07 03:40:36;;;;;;;0.63;0.60;;;9.70;99.90;;;;;;5085220;28;20257;-76
2024/03/07 03:43:01;;;;;;;0.30;0.20;;;9.70;99.90;;;;;;5084626;28;20704;-76
2024/03/07 03:45:27;;;;;;;0.30;0.20;;;9.70;99.90;;;;;;5083849;28;20416;-77
2024/03/07 03:47:53;;;;;;;0.30;0.20;;;9.60;99.90;;;;;;5084942;28;20472;-76
2024/03/07 03:50:19;;;;;;;0.30;0.20;;;9.60;99.90;;;;;;5085188;28;20251;-76
2024/03/07 03:52:45;;;;;;;0.30;0.20;;;9.60;99.90;;;;;;5084597;28;20192;-77
2024/03/07 03:55:11;;;;;;;0.30;0.20;;;9.60;99.90;;;;;;5086709;28;20442;-77
2024/03/07 03:57:42;;;;;;;81.10;34.50;;;9.60;99.90;;;;;;5087381;28;20649;-77
2024/03/07 04:00:13;;;;;;;1.95;1.85;;;9.60;99.90;;;;;;5089030;28;20676;-76
2024/03/07 04:02:48;;;;;;;0.30;0.20;;;9.60;99.90;;;;;;5088675;28;20200;-76
2024/03/07 04:05:16;;;;;;;0.30;0.20;;;9.60;99.90;;;;;;5088657;28;20334;-76
2024/03/07 04:07:42;;;;;;;0.30;0.20;;;9.70;99.90;;;;;;5088465;28;20188;-76
2024/03/07 04:10:09;;;;;;;0.30;0.20;;;9.90;99.90;;;;;;5088759;28;20199;-77
2024/03/07 04:12:37;;;;;;;0.30;0.20;;;10.10;99.90;;;;;;5088186;28;20243;-76
2024/03/07 04:15:04;;;;;;;1.77;1.67;;;10.20;99.90;;;;;;5087297;28;20177;-77
2024/03/07 04:17:31;;;;;;;1.45;1.45;;;10.30;99.90;;;;;;5086826;28;20238;-76
2024/03/07 04:19:58;;;;;;;1.40;1.30;;;10.30;99.90;;;;;;5088607;28;20200;-76
2024/03/07 04:22:24;;;;;;;0.30;0.20;;;10.30;99.90;;;;;;5086716;28;20172;-76
2024/03/07 04:24:53;;;;;;;0.30;0.20;;;10.40;99.90;;;;;;5088730;28;20401;-77
2024/03/07 04:27:19;;;;;;;0.30;0.20;;;10.50;99.90;;;;;;5086329;28;20259;-77
2024/03/07 04:29:47;;;;;;;0.30;0.20;;;10.50;99.90;;;;;;5088904;28;20192;-77
2024/03/07 04:32:13;;;;;;;0.30;0.20;;;10.60;99.90;;;;;;5088181;28;20407;-76
2024/03/07 04:34:39;;;;;;;0.30;0.20;;;10.70;99.90;;;;;;5088763;28;20397;-76
2024/03/07 04:37:05;;;;;;;0.30;0.20;;;10.70;99.90;;;;;;5085825;28;20267;-77
2024/03/07 04:39:34;;;;;;;0.30;0.20;;;10.80;99.90;;;;;;5088284;28;20338;-76
2024/03/07 04:42:01;;;;;;;0.30;0.20;;;10.90;99.90;;;;;;5086380;28;20417;-77
2024/03/07 04:44:28;;;;;;;0.30;0.20;;;10.90;99.90;;;;;;5086758;28;20674;-77
2024/03/07 04:46:56;;;;;;;0.30;0.20;;;11.00;99.90;;;;;;5087681;28;20173;-77
2024/03/07 04:49:23;;;;;;;0.30;0.20;;;11.10;99.90;;;;;;5087867;28;20207;-77
2024/03/07 04:51:53;;;;;;;0.30;0.30;;;11.10;99.90;;;;;;5086209;28;20212;-77
2024/03/07 04:54:19;;;;;;;0.30;0.20;;;11.10;99.90;;;;;;5086467;28;20204;-77
2024/03/07 04:56:46;;;;;;;0.30;0.20;;;11.20;99.90;;;;;;5086226;28;20181;-77
2024/03/07 04:59:12;;;;;;;0.30;0.20;;;11.20;99.90;;;;;;5085400;28;20591;-77
2024/03/07 05:01:39;;;;;;;0.30;0.20;;;11.30;99.90;;;;;;5086149;28;20268;-77
2024/03/07 05:04:05;;;;;;;0.30;0.20;;;11.20;99.90;;;;;;5084686;28;20969;-76
2024/03/07 05:06:33;;;;;;;0.30;0.20;;;11.20;99.90;;;;;;5085284;28;20512;-77
2024/03/07 05:09:01;;;;;;;0.30;0.20;;;11.20;99.90;;;;;;5086494;28;20242;-77
2024/03/07 05:11:28;;;;;;;0.30;0.30;;;11.20;99.90;;;;;;5083613;28;20203;-77
2024/03/07 05:13:53;;;;;;;0.30;0.30;;;11.20;99.90;;;;;;5085639;28;20232;-78
2024/03/07 05:16:19;;;;;;;2.30;2.20;;;11.10;99.90;;;;;;5086306;28;20169;-77
2024/03/07 05:18:45;;;;;;;0.85;0.85;;;11.20;99.90;;;;;;5086317;28;20234;-78
2024/03/07 05:23:55;;;;;;;24.60;22.70;;;11.10;99.90;;;;;;5085997;28;20242;-77
2024/03/07 05:26:21;;;;;;;0.30;0.20;;;11.10;99.90;;;;;;5084773;28;20230;-78
2024/03/07 05:28:46;;;;;;;3.70;3.20;;;11.10;99.90;;;;;;5082614;28;20603;-77
2024/03/07 05:31:12;;;;;;;0.30;0.20;;;11.00;99.90;;;;;;5069313;28;20672;-77
2024/03/07 05:33:40;;;;;;;0.30;0.20;;;11.00;99.90;;;;;;5084915;28;20673;-77
2024/03/07 05:36:16;;;;;;;1.40;0.85;;;11.10;99.90;;;;;;5079984;28;20326;-77
2024/03/07 05:38:45;;;;;;;0.30;0.20;;;11.00;99.90;;;;;;5067806;28;20205;-77
2024/03/07 05:41:12;;;;;;;0.30;0.28;;;11.00;99.90;;;;;;5084859;28;20216;-76
2024/03/07 05:43:38;;;;;;;0.30;0.20;;;11.00;99.90;;;;;;5085932;28;20207;-77
2024/03/07 05:46:06;;;;;;;0.32;0.30;;;10.90;99.90;;;;;;5086509;28;20560;-77
2024/03/07 05:48:33;;;;;;;0.30;0.20;;;10.80;99.90;;;;;;5086055;28;20295;-77
2024/03/07 05:50:59;;;;;;;0.30;0.20;;;10.70;99.90;;;;;;5077391;28;20192;-76
2024/03/07 05:53:25;;;;;;;2.38;2.28;;;10.50;99.90;;;;;;5063976;28;20204;-77
2024/03/07 05:55:51;;;;;;;1.67;1.57;;;10.40;99.90;;;;;;5066137;28;20196;-76
2024/03/07 05:58:17;;;;;;;0.30;0.20;;;10.30;99.90;;;;;;5064536;28;20745;-77
2024/03/07 06:00:51;;;;;;;0.30;0.20;;;10.20;99.90;;;;;;5065567;28;20208;-77
2024/03/07 06:03:21;;;;;;;0.30;0.20;;;10.10;99.90;;;;;;5075810;28;20377;-77
2024/03/07 06:05:48;;;;;;;0.30;0.20;;;10.00;99.90;;;;;;5085136;28;20183;-77
2024/03/07 06:08:17;;;;;;;0.30;0.20;;;9.90;99.90;;;;;;5083666;28;20765;-76
2024/03/07 06:10:46;;;;;;;0.30;0.20;;;9.90;99.90;;;;;;5081637;28;20176;-76
2024/03/07 06:13:13;;;;;;;0.30;0.20;;;9.80;99.90;;;;;;5082742;28;20716;-76
2024/03/07 06:15:39;;;;;;;0.30;0.30;;;9.80;99.90;;;;;;5081338;28;20369;-77
2024/03/07 06:18:08;;;;;;;0.30;0.30;;;9.70;99.90;;;;;;5069871;28;20223;-76
2024/03/07 06:20:35;;;;;;;0.30;0.20;;;9.70;99.90;;;;;;5082827;28;20212;-76
2024/03/07 06:23:04;;;;;;;0.30;0.30;;;9.70;99.90;;;;;;5064664;28;20788;-76
2024/03/07 06:25:36;;;;;;;107.70;29.60;;;9.60;99.90;;;;;;5082643;28;20177;-76
2024/03/07 06:28:10;;;;;;;0.30;0.20;;;9.60;99.90;;;;;;5081742;28;20231;-77
2024/03/07 06:30:42;;;;;;;0.88;0.85;;;9.60;99.90;;;;;;5073506;28;20180;-77
2024/03/07 06:33:08;;;;;;;1.40;1.10;;;9.60;99.90;;;;;;5073644;28;20666;-76
2024/03/07 06:35:38;;;;;;;0.30;0.20;;;9.70;99.90;;;;;;5082193;28;20182;-76
2024/03/07 06:38:05;;;;;;;0.63;0.63;;;9.70;99.90;;;;;;5081769;28;20591;-76
2024/03/07 06:40:32;;;;;;;0.30;0.20;;;9.60;99.90;;;;;;5078369;28;20208;-76
2024/03/07 06:42:59;;;;;;;54.25;36.25;;;9.70;99.90;;;;;;5080063;28;20253;-76
2024/03/07 06:45:25;;;;;;;0.30;0.20;;;9.60;99.90;;;;;;5081087;28;20210;-77
2024/03/07 06:47:54;;;;;;;9.75;4.78;;;9.70;99.90;;;;;;5080968;28;20211;-77
2024/03/07 06:50:20;;;;;;;0.30;0.20;;;9.70;99.90;;;;;;5076185;28;20189;-76
2024/03/07 06:52:49;;;;;;;0.30;0.20;;;9.60;99.90;;;;;;5078605;28;20257;-77
2024/03/07 06:55:19;;;;;;;0.30;0.30;;;9.60;99.90;;;;;;5074319;28;20667;-76
2024/03/07 06:57:46;;;;;;;0.30;0.20;;;9.70;99.90;;;;;;5078810;28;20737;-77
2024/03/07 07:00:21;;;;;;;0.30;0.20;;;9.80;99.90;;;;;;5091046;28;20209;-78
2024/03/07 07:02:50;;;;;;;0.30;0.30;;;9.80;99.90;;;;;;5076593;28;20567;-77
2024/03/07 07:05:18;;;;;;;1.67;1.67;;;9.80;99.90;;;;;;5078011;28;20181;-78
2024/03/07 07:07:44;;;;;;;0.30;0.20;;;9.80;99.90;;;;;;5080966;28;20461;-78
2024/03/07 07:10:17;;;;;;;0.60;0.60;;;9.80;99.90;;;;;;5078909;28;20267;-77
2024/03/07 07:12:45;;;;;;;0.30;0.20;;;9.80;99.90;;;;;;5075090;28;20235;-78
2024/03/07 07:15:12;;;;;;;0.30;0.20;;;9.80;99.90;;;;;;5075525;28;20424;-77
2024/03/07 07:17:39;;;;;;;0.30;0.20;;;9.80;99.90;;;;;;5076772;28;20742;-77
2024/03/07 07:20:10;;;;;;;0.30;0.20;;;9.80;99.90;;;;;;5080070;28;20282;-78
2024/03/07 07:22:37;;;;;;;0.30;0.20;;;9.80;99.90;;;;;;5075651;28;20232;-77
2024/03/07 07:25:04;;;;;;;0.30;0.20;;;9.80;99.90;;;;;;5069550;28;20172;-78
2024/03/07 07:27:31;;;;;;;0.30;0.20;;;9.80;99.90;;;;;;5079062;28;20277;-78
2024/03/07 07:29:57;;;;;;;0.30;0.20;;;9.90;99.90;;;;;;5071784;28;20206;-78
2024/03/07 07:32:23;;;;;;;0.50;0.50;;;9.90;99.90;;;;;;5077881;28;20629;-78
2024/03/07 07:34:49;;;;;;;0.30;0.20;;;9.90;99.90;;;;;;5072852;28;20189;-78
2024/03/07 07:37:15;;;;;;;0.30;0.20;;;9.90;99.90;;;;;;5073020;28;20294;-78
2024/03/07 07:39:40;;;;;;;0.30;0.20;;;9.90;99.90;;;;;;5069685;28;20298;-77
2024/03/07 07:42:09;;;;;;;1.13;1.13;;;10.00;99.90;;;;;;5074668;28;20180;-78
2024/03/07 07:44:35;;;;;;;1.35;1.25;;;10.20;99.90;;;;;;5073062;28;20252;-79
2024/03/07 07:47:01;;;;;;;0.40;0.20;;;10.20;99.90;;;;;;5072727;28;20280;-79
2024/03/07 07:49:27;;;;;;;0.50;0.50;;;10.10;99.90;;;;;;5078515;28;20197;-78
2024/03/07 07:51:53;;;;;;;0.30;0.20;;;10.10;99.90;;;;;;5076759;28;20828;-77
2024/03/07 07:54:20;;;;;;;0.40;0.35;;;10.00;99.90;;;;;;5084469;28;20661;-76
2024/03/07 07:56:47;;;;;;;0.40;0.40;;;10.00;99.90;;;;;;5073325;28;20412;-78
2024/03/07 07:59:13;;;;;;;0.30;0.20;;;9.90;99.90;;;;;;5071336;28;20292;-76
2024/03/07 08:01:39;;;;;;;0.30;0.30;;;9.90;99.90;;;;;;5071650;28;20196;-77
2024/03/07 08:04:08;;;;;;;2.97;2.88;;;9.80;99.90;;;;;;5079213;28;20204;-76
2024/03/07 08:06:34;;;;;;;1.20;1.20;;;9.80;99.90;;;;;;5063720;28;20181;-78
2024/03/07 08:08:59;;;;;;;0.30;0.20;;;9.80;99.90;;;;;;5075867;28;20746;-78
2024/03/07 08:11:25;;;;;;;0.30;0.20;;;9.80;99.90;;;;;;5078184;28;20650;-77
2024/03/07 08:13:51;;;;;;;0.30;0.20;;;9.80;99.90;;;;;;5078798;28;20236;-78
2024/03/07 08:16:17;;;;;;;0.30;0.20;;;9.70;99.90;;;;;;5083925;28;20269;-77
2024/03/07 08:18:44;;;;;;;0.30;0.20;;;9.70;99.90;;;;;;5071924;28;20205;-78
2024/03/07 08:21:13;;;;;;;0.65;0.65;;;9.70;99.90;;;;;;5085969;28;20208;-78
2024/03/07 08:23:39;;;;;;;0.30;0.20;;;9.60;99.90;;;;;;5082322;28;20369;-78
2024/03/07 08:26:05;;;;;;;0.30;0.20;;;9.60;99.90;;;;;;5086654;28;20532;-77
2024/03/07 08:28:31;;;;;;;1.05;1.05;;;9.60;99.90;;;;;;5076820;28;20234;-79
2024/03/07 08:30:58;;;;;;;0.30;0.20;;;9.60;99.90;;;;;;5081815;28;20184;-77
2024/03/07 08:33:24;;;;;;;0.82;0.80;;;9.60;99.90;;;;;;5074021;28;20207;-77
2024/03/07 08:35:52;;;;;;;0.30;0.20;;;9.60;99.90;;;;;;5069019;28;20189;-76
2024/03/07 08:38:18;;;;;;;0.30;0.20;;;9.50;99.90;;;;;;5076706;28;20201;-78
2024/03/07 08:40:44;;;;;;;0.30;0.20;;;9.50;99.90;;;;;;5078661;28;20355;-77
2024/03/07 08:43:10;;;;;;;0.60;0.60;;;9.60;99.90;;;;;;5076108;28;20209;-80
2024/03/07 08:45:36;;;;;;;3.30;3.10;;;9.60;99.90;;;;;;5080560;28;20184;-79
2024/03/07 08:48:03;;;;;;;0.30;0.20;;;9.60;99.90;;;;;;5074474;28;20454;-79
2024/03/07 08:50:30;;;;;;;0.30;0.20;;;9.60;99.90;;;;;;5078309;28;20243;-79
2024/03/07 08:52:56;;;;;;;0.30;0.20;;;9.50;99.90;;;;;;5075541;28;20480;-77
2024/03/07 08:55:25;;;;;;;0.30;0.20;;;9.50;99.90;;;;;;5079686;28;20187;-77
2024/03/07 08:57:51;;;;;;;0.30;0.20;;;9.50;99.90;;;;;;5075066;28;20246;-78
2024/03/07 09:00:24;;;;;;;0.30;0.20;;;9.50;99.90;;;;;;5080249;28;20243;-80
2024/03/07 09:02:58;;;;;;;1.10;1.10;;;9.60;99.90;;;;;;5078666;28;20422;-80
2024/03/07 09:05:24;;;;;;;0.30;0.20;;;9.60;99.90;;;;;;5076727;28;20422;-80
2024/03/07 09:07:51;;;;;;;0.30;0.20;;;9.60;99.90;;;;;;5081050;28;20703;-78
2024/03/07 09:10:17;;;;;;;0.30;0.20;;;9.60;99.90;;;;;;5081357;28;20719;-77
2024/03/07 09:12:44;;;;;;;0.33;0.20;;;9.60;99.90;;;;;;5077031;28;20340;-78
2024/03/07 09:15:10;;;;;;;0.30;0.20;;;9.60;99.90;;;;;;5072613;28;20523;-79
2024/03/07 09:17:36;;;;;;;0.77;0.77;;;9.60;99.90;;;;;;5070200;28;20299;-79
2024/03/07 09:20:06;;;;;;;4.80;4.60;;;9.70;99.90;;;;;;5073167;28;20288;-77
2024/03/07 09:22:32;;;;;;;2.40;2.30;;;9.70;99.90;;;;;;5073452;28;20624;-78
2024/03/07 09:24:58;;;;;;;0.65;0.65;;;9.70;99.90;;;;;;5073781;28;20717;-77
2024/03/07 09:27:24;;;;;;;0.30;0.20;;;9.70;99.90;;;;;;5076623;28;20191;-77
2024/03/07 09:29:51;;;;;;;0.30;0.20;;;9.70;99.90;;;;;;5074767;28;20576;-77
2024/03/07 09:32:17;;;;;;;0.30;0.30;;;9.70;99.90;;;;;;5075104;28;20982;-79
2024/03/07 09:34:42;;;;;;;0.30;0.20;;;9.70;99.90;;;;;;5071035;28;20316;-79
2024/03/07 09:37:10;;;;;;;0.30;0.20;;;9.70;99.90;;;;;;5071346;28;20214;-78
2024/03/07 09:39:37;;;;;;;0.30;0.20;;;9.70;99.90;;;;;;5068818;28;20311;-77
2024/03/07 09:42:03;;;;;;;0.40;0.40;;;9.70;99.90;;;;;;5077026;28;20314;-78
2024/03/07 09:44:31;;;;;;;0.40;0.40;;;9.70;99.90;;;;;;5077302;28;20200;-78
2024/03/07 09:46:58;;;;;;;0.30;0.20;;;9.70;99.90;;;;;;5073784;28;20200;-78
2024/03/07 09:49:28;;;;;;;0.30;0.20;;;9.70;99.90;;;;;;5076550;28;20201;-80
2024/03/07 09:51:56;;;;;;;2.20;2.05;;;9.70;99.90;;;;;;5080401;28;20721;-78
2024/03/07 09:54:25;;;;;;;0.77;0.77;;;9.70;99.90;;;;;;5076756;28;20204;-80
2024/03/07 09:56:53;;;;;;;0.40;0.30;;;9.70;99.90;;;;;;5078679;28;20346;-79
2024/03/07 09:59:23;;;;;;;0.30;0.20;;;9.70;99.90;;;;;;5081594;28;21008;-77
2024/03/07 10:01:54;;;;;;;0.30;0.20;;;9.70;99.90;;;;;;5075873;28;20192;-79
2024/03/07 10:04:31;;;;;;;0.30;0.20;;;9.70;99.90;;;;;;5077110;28;20216;-79
2024/03/07 10:06:58;;;;;;;0.30;0.20;;;9.70;99.90;;;;;;5081117;28;20300;-77
2024/03/07 10:09:24;;;;;;;0.30;0.30;;;9.70;99.90;;;;;;5073019;28;20355;-78
2024/03/07 10:11:59;;;;;;;0.30;0.20;;;9.80;99.90;;;;;;5079507;28;20354;-77
2024/03/07 10:14:25;;;;;;;0.30;0.20;;;9.80;99.90;;;;;;5096794;28;20232;-78
2024/03/07 10:16:53;;;;;;;0.30;0.30;;;9.80;99.90;;;;;;5080958;28;20709;-78
2024/03/07 10:19:19;;;;;;;0.30;0.20;;;9.80;99.90;;;;;;5080217;28;20547;-77
2024/03/07 10:21:45;;;;;;;0.30;0.20;;;9.90;99.90;;;;;;5079709;28;20337;-78
2024/03/07 10:24:11;;;;;;;0.30;0.20;;;9.90;99.90;;;;;;5069033;28;20271;-78
2024/03/07 10:26:40;;;;;;;0.30;0.20;;;9.80;99.90;;;;;;5076273;28;20267;-80
2024/03/07 10:29:07;;;;;;;0.30;0.20;;;9.90;99.90;;;;;;5079243;28;20200;-80
2024/03/07 10:31:34;;;;;;;0.30;0.20;;;9.80;99.90;;;;;;5075703;28;20177;-76
2024/03/07 10:34:03;;;;;;;0.30;0.20;;;9.90;99.90;;;;;;5070827;28;20204;-79
2024/03/07 10:36:32;;;;;;;2.65;2.20;;;9.90;99.90;;;;;;5071567;28;20177;-79
2024/03/07 10:39:13;;;;;;;0.30;0.20;;;9.80;99.90;;;;;;5072443;28;20207;-77
2024/03/07 10:41:49;;;;;;;0.30;0.20;;;9.80;99.90;;;;;;5072320;28;20180;-79
2024/03/07 10:44:28;;;;;;;0.30;0.20;;;9.90;99.90;;;;;;5071918;28;20399;-79
2024/03/07 10:46:57;;;;;;;0.30;0.20;;;9.90;99.90;;;;;;5071088;28;20192;-76
2024/03/07 10:49:28;;;;;;;0.30;0.20;;;9.90;99.90;;;;;;5074253;28;20279;-79
2024/03/07 10:52:29;;;;;;;0.30;0.20;;;10.00;99.90;;;;;;5070991;28;20419;-79
2024/03/07 10:55:23;;;;;;;0.40;0.40;;;10.00;99.90;;;;;;5065532;28;20188;-77
2024/03/07 10:58:00;;;;;;;0.30;0.20;;;10.00;99.90;;;;;;5053767;28;20216;-79
2024/03/07 11:00:39;;;;;;;0.30;0.20;;;10.10;99.90;;;;;;5080744;28;20223;-79
2024/03/07 11:03:07;;;;;;;0.30;0.20;;;10.10;99.90;;;;;;5069639;28;20652;-79
2024/03/07 11:05:34;;;;;;;0.30;0.20;;;10.20;99.90;;;;;;5077784;28;20187;-80
2024/03/07 11:08:04;;;;;;;0.40;0.40;;;10.20;99.90;;;;;;5076704;28;20269;-78
2024/03/07 11:10:30;;;;;;;0.30;0.20;;;10.20;99.90;;;;;;5076873;28;20192;-80
2024/03/07 11:12:57;;;;;;;0.30;0.20;;;10.20;99.90;;;;;;5070731;28;20235;-78
2024/03/07 11:15:27;;;;;;;0.30;0.30;;;10.20;99.90;;;;;;5074055;28;20460;-80
2024/03/07 11:17:55;;;;;;;0.30;0.20;;;10.30;99.90;;;;;;5070792;28;20247;-77
2024/03/07 11:20:25;;;;;;;0.30;0.20;;;10.30;99.90;;;;;;5079596;28;20293;-76
2024/03/07 11:22:53;;;;;;;0.30;0.20;;;10.30;99.90;;;;;;5071517;28;20201;-77
2024/03/07 11:25:21;;;;;;;0.30;0.20;;;10.30;99.90;;;;;;5077972;28;20184;-79
2024/03/07 11:27:59;;;;;;;0.30;0.20;;;10.30;99.90;;;;;;5078436;28;20195;-77
2024/03/07 11:30:25;;;;;;;0.30;0.28;;;10.30;99.90;;;;;;5071948;28;20184;-79
2024/03/07 11:32:57;;;;;;;0.30;0.20;;;10.30;99.90;;;;;;5075174;28;20586;-79
2024/03/07 11:35:35;;;;;;;0.30;0.20;;;10.30;99.90;;;;;;5071685;28;20257;-79
2024/03/07 11:38:04;;;;;;;0.93;0.93;;;10.40;99.90;;;;;;5074840;28;20196;-79
2024/03/07 11:40:30;;;;;;;0.40;0.30;;;10.40;99.90;;;;;;5074398;28;20482;-79
2024/03/07 11:42:59;;;;;;;0.30;0.20;;;10.40;99.90;;;;;;5076805;28;20204;-79
2024/03/07 11:45:26;;;;;;;0.30;0.20;;;10.40;99.90;;;;;;5072962;28;20174;-80
2024/03/07 11:48:31;;;;;;;0.30;0.20;;;10.40;99.90;;;;;;5067616;28;20200;-77
2024/03/07 11:50:49;;;;;;;0.30;0.20;;;10.40;99.90;;;;;;5070878;28;20781;-78
2024/03/07 11:53:15;;;;;;;0.30;0.30;;;10.40;99.90;;;;;;5065885;28;20724;-76
2024/03/07 11:55:43;;;;;;;0.30;0.20;;;10.40;99.90;;;;;;5064828;28;20673;-76
2024/03/07 11:58:16;;;;;;;0.82;0.82;;;10.40;99.90;;;;;;5065801;28;20689;-78
2024/03/07 12:00:45;;;;;;;0.30;0.20;;;10.40;99.90;;;;;;5066425;28;20247;-76
2024/03/07 12:03:21;;;;;;;0.30;0.20;;;10.40;99.90;;;;;;5065602;28;20234;-76
2024/03/07 12:05:48;;;;;;;2.13;1.50;;;10.40;99.90;;;;;;5062867;28;20667;-76
2024/03/07 12:08:14;;;;;;;0.30;0.20;;;10.40;99.90;;;;;;5060233;28;20350;-78
2024/03/07 12:10:44;;;;;;;0.30;0.30;;;10.40;99.90;;;;;;5071402;28;20732;-76
2024/03/07 12:13:15;;;;;;;0.30;0.30;;;10.40;99.90;;;;;;5067520;28;20395;-78
2024/03/07 12:15:42;;;;;;;0.30;0.20;;;10.40;99.90;;;;;;5068012;28;20668;-76
2024/03/07 12:18:09;;;;;;;0.30;0.20;;;10.40;99.90;;;;;;5073997;28;20201;-76
2024/03/07 12:20:40;;;;;;;4.68;4.45;;;10.40;99.90;;;;;;5076764;28;20398;-79
2024/03/07 12:23:12;;;;;;;5.88;2.15;;;10.50;99.90;;;;;;5077392;28;20204;-76
2024/03/07 12:25:45;;;;;;;0.85;0.82;;;10.50;99.90;;;;;;5082164;28;20188;-76
2024/03/07 12:28:12;;;;;;;0.30;0.20;;;10.50;99.90;;;;;;5075747;28;20655;-76
2024/03/07 12:30:50;;;;;;;0.30;0.30;;;10.60;99.90;;;;;;5072912;28;20623;-78
2024/03/07 12:33:21;;;;;;;0.30;0.20;;;10.60;99.90;;;;;;5070778;28;20773;-76
2024/03/07 12:35:49;;;;;;;0.30;0.20;;;10.60;99.90;;;;;;5075152;28;20224;-78
2024/03/07 12:38:16;;;;;;;0.30;0.20;;;10.70;99.90;;;;;;5075533;28;20192;-76
2024/03/07 12:40:48;;;;;;;0.30;0.20;;;10.70;99.90;;;;;;5073984;28;20220;-78
2024/03/07 12:43:21;;;;;;;0.30;0.20;;;10.70;99.90;;;;;;5074010;28;20361;-78
2024/03/07 12:45:51;;;;;;;0.30;0.20;;;10.70;99.90;;;;;;5074820;28;20216;-78
2024/03/07 12:48:21;;;;;;;0.30;0.20;;;10.70;99.90;;;;;;5074651;28;20661;-77
2024/03/07 12:50:54;;;;;;;0.30;0.20;;;10.70;99.90;;;;;;5073340;28;20705;-75
2024/03/07 12:53:25;;;;;;;0.30;0.20;;;10.60;99.90;;;;;;5068012;28;20268;-76
2024/03/07 12:55:52;;;;;;;0.30;0.20;;;10.70;99.90;;;;;;5079517;28;20583;-77